Time;durP1;ratioP1;P1;durP2;ratioP2;P2;SDS_P1;SDS_P2;PMS_P1;PMS_P2;Temp;Humidity;BMP_temperature;BMP_pressure;BME280_temperature;BME280_humidity;BME280_pressure;Samples;Min_cycle;Max_cycle;Signal;HPM_P1;HPM_P2
2023/01/26 00:01:34;;;;;;;;;;;-0.30;99.90;;;;;;5123218;27;19953;-81
2023/01/26 00:03:59;;;;;;;;;;;-0.20;99.90;;;;;;5104904;28;19966;-80
2023/01/26 00:06:25;;;;;;;;;;;-0.30;99.90;;;;;;5120812;27;20466;-81
2023/01/26 00:08:52;;;;;;;;;;;-0.20;99.90;;;;;;5124515;27;19935;-80
2023/01/26 00:11:19;;;;;;;;;;;-0.20;99.90;;;;;;5104389;27;19955;-80
2023/01/26 00:13:44;;;;;;;;;;;-0.20;99.90;;;;;;5124971;27;19927;-80
2023/01/26 00:16:12;;;;;;;;;;;-0.20;99.90;;;;;;5124350;27;20430;-80
2023/01/26 00:18:38;;;;;;;;;;;-0.20;99.90;;;;;;5104327;28;19974;-81
2023/01/26 00:21:04;;;;;;;;;;;-0.20;99.90;;;;;;5114993;27;20370;-80
2023/01/26 00:23:31;;;;;;;;;;;-0.20;99.90;;;;;;5106058;27;19924;-80
2023/01/26 00:25:56;;;;;;;;;;;-0.20;99.90;;;;;;5124977;27;20000;-81
2023/01/26 00:28:22;;;;;;;;;;;-0.20;99.90;;;;;;5104707;27;19923;-80
2023/01/26 00:30:47;;;;;;;;;;;-0.10;99.90;;;;;;5119514;28;19923;-81
2023/01/26 00:33:13;;;;;;;;;;;-0.10;99.90;;;;;;5117217;27;19935;-81
2023/01/26 00:35:43;;;;;;;;;;;-0.20;99.90;;;;;;5123587;27;19943;-80
2023/01/26 00:38:12;;;;;;;;;;;-0.10;99.90;;;;;;5107888;27;19938;-81
2023/01/26 00:40:38;;;;;;;;;;;-0.10;99.90;;;;;;5122038;27;19923;-81
2023/01/26 00:43:04;;;;;;;;;;;-0.10;99.90;;;;;;5121251;27;20393;-81
2023/01/26 00:45:29;;;;;;;;;;;-0.10;99.90;;;;;;5105691;27;19968;-80
2023/01/26 00:47:55;;;;;;;;;;;-0.10;99.90;;;;;;5125433;27;19979;-81
2023/01/26 00:50:21;;;;;;;;;;;-0.10;99.90;;;;;;5123130;27;19923;-80
2023/01/26 00:52:46;;;;;;;;;;;-0.10;99.90;;;;;;5115666;27;19924;-81
2023/01/26 00:55:12;;;;;;;;;;;0.00;99.90;;;;;;5123926;27;19963;-80
2023/01/26 00:57:38;;;;;;;;;;;0.00;99.90;;;;;;5121739;27;20320;-81
2023/01/26 01:00:05;;;;;;;;;;;0.00;99.90;;;;;;5106626;27;19928;-80
2023/01/26 01:02:31;;;;;;;;;;;-0.10;99.90;;;;;;5116982;28;20001;-81
2023/01/26 01:04:56;;;;;;;;;;;0.00;99.90;;;;;;5122549;27;19924;-80
2023/01/26 01:07:22;;;;;;;;;;;0.00;99.90;;;;;;5122933;27;19990;-80
2023/01/26 01:09:48;;;;;;;;;;;0.00;99.90;;;;;;5105675;27;19985;-80
2023/01/26 01:12:13;;;;;;;;;;;-0.10;99.90;;;;;;5123219;27;19923;-80
2023/01/26 01:14:39;;;;;;;;;;;-0.10;99.90;;;;;;5121941;27;19923;-80
2023/01/26 01:17:05;;;;;;;;;;;0.00;99.90;;;;;;5106768;27;19932;-80
2023/01/26 01:19:30;;;;;;;;;;;0.00;99.90;;;;;;5101629;28;19931;-81
2023/01/26 01:21:56;;;;;;;;;;;0.00;99.90;;;;;;5106597;27;19923;-81
2023/01/26 01:24:21;;;;;;;;;;;0.00;99.90;;;;;;5104164;27;19930;-80
2023/01/26 01:26:47;;;;;;;;;;;0.00;99.90;;;;;;5123151;27;20377;-80
2023/01/26 01:29:13;;;;;;;;;;;0.00;99.90;;;;;;5105269;27;19924;-79
2023/01/26 01:31:40;;;;;;;;;;;0.00;99.90;;;;;;5108307;27;19927;-80
2023/01/26 01:34:05;;;;;;;;;;;0.00;99.90;;;;;;5117342;27;19963;-80
2023/01/26 01:36:31;;;;;;;;;;;0.00;99.90;;;;;;5121315;27;19989;-80
2023/01/26 01:38:56;;;;;;;;;;;0.10;99.90;;;;;;5137377;27;20020;-80
2023/01/26 01:41:22;;;;;;;;;;;0.10;99.90;;;;;;5121484;27;19935;-80
2023/01/26 01:43:48;;;;;;;;;;;0.00;99.90;;;;;;5121918;27;19923;-80
2023/01/26 01:46:17;;;;;;;;;;;0.00;99.90;;;;;;5117199;28;19927;-80
2023/01/26 01:48:47;;;;;;;;;;;0.00;99.90;;;;;;5112301;27;19923;-80
2023/01/26 01:51:18;;;;;;;;;;;0.10;99.90;;;;;;5119754;27;19931;-80
2023/01/26 01:53:46;;;;;;;;;;;0.10;99.90;;;;;;5105238;27;19945;-80
2023/01/26 01:56:14;;;;;;;;;;;0.10;99.90;;;;;;5122373;27;19931;-80
2023/01/26 01:58:41;;;;;;;;;;;0.10;99.90;;;;;;5121702;27;19923;-80
2023/01/26 02:01:08;;;;;;;;;;;0.00;99.90;;;;;;5122412;27;20483;-81
2023/01/26 02:03:34;;;;;;;;;;;0.10;99.90;;;;;;5122317;27;19927;-80
2023/01/26 02:06:03;;;;;;;;;;;0.10;99.90;;;;;;5111430;28;19958;-80
2023/01/26 02:08:30;;;;;;;;;;;0.10;99.90;;;;;;5121166;27;19974;-80
2023/01/26 02:10:58;;;;;;;;;;;0.10;99.90;;;;;;5121863;27;19923;-80
2023/01/26 02:13:24;;;;;;;;;;;0.10;99.90;;;;;;5122135;27;19931;-80
2023/01/26 02:15:50;;;;;;;;;;;0.20;99.90;;;;;;5100102;27;19923;-80
2023/01/26 02:18:16;;;;;;;;;;;0.10;99.90;;;;;;5127290;27;19948;-80
2023/01/26 02:20:50;;;;;;;;;;;0.10;99.90;;;;;;5140553;27;19927;-80
2023/01/26 02:23:20;;;;;;;;;;;0.10;99.90;;;;;;5104287;28;20004;-80
2023/01/26 02:25:50;;;;;;;;;;;0.20;99.90;;;;;;5108680;28;19923;-80
2023/01/26 02:28:16;;;;;;;;;;;0.10;99.90;;;;;;5121207;28;19950;-81
2023/01/26 02:30:42;;;;;;;;;;;0.20;99.90;;;;;;5131264;28;19928;-80
2023/01/26 02:33:13;;;;;;;;;;;0.20;99.90;;;;;;5121506;28;19935;-81
2023/01/26 02:35:39;;;;;;;;;;;0.20;99.90;;;;;;5107491;28;19929;-80
2023/01/26 02:38:04;;;;;;;;;;;0.20;99.90;;;;;;5131689;27;20069;-81
2023/01/26 02:40:39;;;;;;;;;;;0.30;99.90;;;;;;5125819;28;19927;-81
2023/01/26 02:43:05;;;;;;;;;;;0.20;99.90;;;;;;5122598;28;19966;-80
2023/01/26 02:45:31;;;;;;;;;;;0.20;99.90;;;;;;5142360;28;19957;-80
2023/01/26 02:47:58;;;;;;;;;;;0.20;99.90;;;;;;5121992;28;19924;-81
2023/01/26 02:50:24;;;;;;;;;;;0.20;99.90;;;;;;5121316;28;19923;-81
2023/01/26 02:52:49;;;;;;;;;;;0.20;99.90;;;;;;5108482;27;19930;-81
2023/01/26 02:55:21;;;;;;;;;;;0.30;99.90;;;;;;5144937;27;19927;-81
2023/01/26 02:57:47;;;;;;;;;;;0.30;99.90;;;;;;5124119;27;19927;-81
2023/01/26 03:00:14;;;;;;;;;;;0.30;99.90;;;;;;5126501;27;20450;-81
2023/01/26 03:02:40;;;;;;;;;;;0.30;99.90;;;;;;5124636;27;19923;-81
2023/01/26 03:05:05;;;;;;;;;;;0.30;99.90;;;;;;5126336;27;19924;-81
2023/01/26 03:07:31;;;;;;;;;;;0.20;99.90;;;;;;5101346;28;19923;-81
2023/01/26 03:10:00;;;;;;;;;;;0.30;99.90;;;;;;5125240;27;19963;-81
2023/01/26 03:12:25;;;;;;;;;;;0.30;99.90;;;;;;5125888;27;19952;-81
2023/01/26 03:17:40;;;;;;;;;;;0.30;99.90;;;;;;5082136;27;19923;-81
2023/01/26 03:28:21;;;;;;;;;;;0.40;99.90;;;;;;5119370;27;19972;-81
2023/01/26 03:30:47;;;;;;;;;;;0.40;99.90;;;;;;5125691;27;19927;-81
2023/01/26 03:33:13;;;;;;;;;;;0.30;99.90;;;;;;5124981;27;19946;-81
2023/01/26 03:35:39;;;;;;;;;;;0.40;99.90;;;;;;5125191;27;19923;-81
2023/01/26 03:38:04;;;;;;;;;;;0.30;99.90;;;;;;5108304;27;19927;-81
2023/01/26 03:56:57;;;;;;;;;;;0.40;99.90;;;;;;5121291;28;19928;-81
2023/01/26 03:59:36;;;;;;;;;;;0.40;99.90;;;;;;5120933;28;19924;-81
2023/01/26 04:10:15;;;;;;;;;;;0.50;99.90;;;;;;5107387;28;19932;-81
2023/01/26 04:12:41;;;;;;;;;;;0.50;99.90;;;;;;5121492;28;20010;-81
2023/01/26 04:23:19;;;;;;;;;;;0.50;99.90;;;;;;5117870;28;19924;-81
2023/01/26 04:25:45;;;;;;;;;;;0.50;99.90;;;;;;5121613;28;19931;-81
2023/01/26 04:28:11;;;;;;;;;;;0.50;99.90;;;;;;5119835;28;19924;-81
2023/01/26 04:30:37;;;;;;;;;;;0.50;99.90;;;;;;5122100;28;19934;-80
2023/01/26 04:33:03;;;;;;;;;;;0.50;99.90;;;;;;5120340;28;19939;-81
2023/01/26 04:35:29;;;;;;;;;;;0.60;99.90;;;;;;5120510;28;19924;-81
2023/01/26 04:37:54;;;;;;;;;;;0.50;99.90;;;;;;5106132;28;19927;-81
2023/01/26 04:40:20;;;;;;;;;;;0.50;99.90;;;;;;5102617;28;19924;-81
2023/01/26 04:42:45;;;;;;;;;;;0.60;99.90;;;;;;5099495;28;19924;-80
2023/01/26 04:45:11;;;;;;;;;;;0.60;99.90;;;;;;5081731;28;20333;-81
2023/01/26 04:47:37;;;;;;;;;;;0.50;99.90;;;;;;5100470;28;19950;-81
2023/01/26 04:50:02;;;;;;;;;;;0.60;99.90;;;;;;5099481;28;19928;-81
2023/01/26 04:52:28;;;;;;;;;;;0.60;99.90;;;;;;5082351;28;19963;-81
2023/01/26 04:54:53;;;;;;;;;;;0.60;99.90;;;;;;5099722;28;19924;-81
2023/01/26 04:57:20;;;;;;;;;;;0.60;99.90;;;;;;5099244;28;19924;-81
2023/01/26 04:59:45;;;;;;;;;;;0.60;99.90;;;;;;5100351;28;19989;-80
2023/01/26 05:02:11;;;;;;;;;;;0.60;99.90;;;;;;5096108;28;20481;-81
2023/01/26 05:04:36;;;;;;;;;;;0.60;99.90;;;;;;5080832;28;19924;-81
2023/01/26 05:07:02;;;;;;;;;;;0.60;99.90;;;;;;5099109;28;19971;-81
2023/01/26 05:09:27;;;;;;;;;;;0.60;99.90;;;;;;5099554;28;19942;-81
2023/01/26 05:11:53;;;;;;;;;;;0.70;99.90;;;;;;5089435;28;19938;-81
2023/01/26 05:14:19;;;;;;;;;;;0.60;99.90;;;;;;5097614;28;19931;-80
2023/01/26 05:16:44;;;;;;;;;;;0.60;99.90;;;;;;5102432;28;21007;-80
2023/01/26 05:19:10;;;;;;;;;;;0.70;99.90;;;;;;5065388;28;19988;-81
2023/01/26 05:21:35;;;;;;;;;;;0.70;99.90;;;;;;5099893;28;19991;-81
2023/01/26 05:24:01;;;;;;;;;;;0.70;99.90;;;;;;5097194;28;19931;-81
2023/01/26 05:26:27;;;;;;;;;;;0.70;99.90;;;;;;5080269;28;19924;-81
2023/01/26 05:28:52;;;;;;;;;;;0.70;99.90;;;;;;5098688;28;19931;-81
2023/01/26 05:31:18;;;;;;;;;;;0.70;99.90;;;;;;5078967;28;19924;-80
2023/01/26 05:33:43;;;;;;;;;;;0.70;99.90;;;;;;5093452;28;19924;-81
2023/01/26 05:36:09;;;;;;;;;;;0.70;99.90;;;;;;5109607;28;19934;-81
2023/01/26 05:38:34;;;;;;;;;;;0.70;99.90;;;;;;5103057;27;19928;-81
2023/01/26 05:41:00;;;;;;;;;;;0.70;99.90;;;;;;5122372;27;19923;-81
2023/01/26 05:43:26;;;;;;;;;;;0.70;99.90;;;;;;5123502;27;19934;-80
2023/01/26 05:45:51;;;;;;;;;;;0.70;99.90;;;;;;5119820;27;19924;-81
2023/01/26 05:48:17;;;;;;;;;;;0.70;99.90;;;;;;5123003;27;19973;-81
2023/01/26 05:50:42;;;;;;;;;;;0.70;99.90;;;;;;5122799;27;19923;-80
2023/01/26 05:53:08;;;;;;;;;;;0.70;99.90;;;;;;5116942;27;19935;-81
2023/01/26 05:55:34;;;;;;;;;;;0.70;99.90;;;;;;5093403;28;19927;-81
2023/01/26 05:57:59;;;;;;;;;;;0.70;99.90;;;;;;5120341;27;19980;-81
2023/01/26 06:00:25;;;;;;;;;;;0.80;99.90;;;;;;5123388;27;19927;-81
2023/01/26 06:02:50;;;;;;;;;;;0.70;99.90;;;;;;5123629;27;19966;-81
2023/01/26 06:05:16;;;;;;;;;;;0.80;99.90;;;;;;5115328;28;19924;-81
2023/01/26 06:07:42;;;;;;;;;;;0.80;99.90;;;;;;5117026;27;20489;-81
2023/01/26 06:10:07;;;;;;;;;;;0.80;99.90;;;;;;5104697;27;19923;-81
2023/01/26 06:12:34;;;;;;;;;;;0.70;99.90;;;;;;5122338;27;19935;-81
2023/01/26 06:15:03;;;;;;;;;;;0.70;99.90;;;;;;5103328;28;19928;-81
2023/01/26 06:17:29;;;;;;;;;;;0.80;99.90;;;;;;5108752;27;19930;-81
2023/01/26 06:19:54;;;;;;;;;;;0.80;99.90;;;;;;5107060;27;19970;-81
2023/01/26 06:22:20;;;;;;;;;;;0.80;99.90;;;;;;5101748;28;19966;-81
2023/01/26 06:24:46;;;;;;;;;;;0.80;99.90;;;;;;5116862;27;19927;-81
2023/01/26 06:27:12;;;;;;;;;;;0.80;99.90;;;;;;5102959;28;19968;-82
2023/01/26 06:29:38;;;;;;;;;;;0.90;99.90;;;;;;5122396;28;19945;-81
2023/01/26 06:32:04;;;;;;;;;;;0.80;99.90;;;;;;5104050;28;19923;-81
2023/01/26 06:34:29;;;;;;;;;;;0.80;99.90;;;;;;5105515;28;19924;-81
2023/01/26 06:36:55;;;;;;;;;;;0.90;99.90;;;;;;5117950;28;20005;-81
2023/01/26 06:39:21;;;;;;;;;;;0.90;99.90;;;;;;5136428;28;19935;-81
2023/01/26 06:41:46;;;;;;;;;;;0.90;99.90;;;;;;5120288;28;19924;-81
2023/01/26 06:44:12;;;;;;;;;;;0.90;99.90;;;;;;5104956;28;19923;-81
2023/01/26 06:46:38;;;;;;;;;;;0.80;99.90;;;;;;5110665;28;19924;-81
2023/01/26 06:49:04;;;;;;;;;;;0.90;99.90;;;;;;5080010;28;19949;-81
2023/01/26 06:51:46;;;;;;;;;;;0.90;99.90;;;;;;5122450;28;19987;-81
2023/01/26 06:54:12;;;;;;;;;;;0.90;99.90;;;;;;5118819;28;19923;-81
2023/01/26 06:56:38;;;;;;;;;;;0.90;99.90;;;;;;5117917;28;19924;-81
2023/01/26 06:59:04;;;;;;;;;;;0.90;99.90;;;;;;5115368;28;19923;-81
2023/01/26 07:01:33;;;;;;;;;;;0.90;99.90;;;;;;5107788;28;19928;-81
2023/01/26 07:03:59;;;;;;;;;;;0.90;99.90;;;;;;5122570;28;20038;-81
2023/01/26 07:06:24;;;;;;;;;;;0.90;99.90;;;;;;5103980;28;19942;-81
2023/01/26 07:08:50;;;;;;;;;;;1.00;99.90;;;;;;5105421;28;20006;-81
2023/01/26 07:11:16;;;;;;;;;;;0.90;99.90;;;;;;5116169;28;19924;-81
2023/01/26 07:13:41;;;;;;;;;;;0.90;99.90;;;;;;5100626;28;20030;-81
2023/01/26 07:16:09;;;;;;;;;;;0.90;99.90;;;;;;5089315;28;19929;-81
2023/01/26 07:18:36;;;;;;;;;;;0.90;99.90;;;;;;5120431;28;19945;-81
2023/01/26 07:21:02;;;;;;;;;;;0.90;99.90;;;;;;5121400;28;19924;-81
2023/01/26 07:23:28;;;;;;;;;;;0.90;99.90;;;;;;5120669;28;20010;-81
2023/01/26 07:25:54;;;;;;;;;;;1.00;99.90;;;;;;5117216;28;19934;-82
2023/01/26 07:28:20;;;;;;;;;;;0.90;99.90;;;;;;5119967;28;19942;-81
2023/01/26 07:30:45;;;;;;;;;;;1.00;99.90;;;;;;5119704;28;19923;-81
2023/01/26 07:33:11;;;;;;;;;;;1.00;99.90;;;;;;5101411;27;20067;-81
2023/01/26 07:35:36;;;;;;;;;;;1.00;99.90;;;;;;5099858;28;19963;-82
2023/01/26 07:38:02;;;;;;;;;;;1.00;99.90;;;;;;5125440;27;19923;-81
2023/01/26 07:40:28;;;;;;;;;;;1.00;99.90;;;;;;5126653;27;19924;-81
2023/01/26 07:42:54;;;;;;;;;;;1.00;99.90;;;;;;5088079;28;19974;-81
2023/01/26 07:45:20;;;;;;;;;;;1.00;99.90;;;;;;5113282;28;19924;-81
2023/01/26 07:47:45;;;;;;;;;;;1.00;99.90;;;;;;5096807;27;19930;-81
2023/01/26 07:50:12;;;;;;;;;;;1.00;99.90;;;;;;5134117;27;19927;-81
2023/01/26 07:52:38;;;;;;;;;;;1.10;99.90;;;;;;5124361;27;19932;-81
2023/01/26 07:55:04;;;;;;;;;;;1.00;99.90;;;;;;5125093;27;19923;-81
2023/01/26 07:57:30;;;;;;;;;;;1.00;99.90;;;;;;5087861;27;20295;-81
2023/01/26 07:59:55;;;;;;;;;;;1.00;99.90;;;;;;5119000;27;19931;-80
2023/01/26 08:02:21;;;;;;;;;;;1.00;99.90;;;;;;5122157;27;19973;-81
2023/01/26 08:04:47;;;;;;;;;;;1.10;99.90;;;;;;5124330;27;19923;-81
2023/01/26 08:07:13;;;;;;;;;;;1.10;99.90;;;;;;5103817;28;19923;-81
2023/01/26 08:09:39;;;;;;;;;;;1.10;99.90;;;;;;5116018;27;19930;-81
2023/01/26 08:12:06;;;;;;;;;;;1.10;99.90;;;;;;5113221;27;19933;-80
2023/01/26 08:14:31;;;;;;;;;;;1.10;99.90;;;;;;5120050;27;19931;-81
2023/01/26 08:16:57;;;;;;;;;;;1.10;99.90;;;;;;5127342;27;19934;-80
2023/01/26 08:19:22;;;;;;;;;;;1.10;99.90;;;;;;5124591;27;19942;-81
2023/01/26 08:21:48;;;;;;;;;;;1.20;99.90;;;;;;5094696;27;19995;-81
2023/01/26 08:24:14;;;;;;;;;;;1.20;99.90;;;;;;5120672;27;19924;-81
2023/01/26 08:26:39;;;;;;;;;;;1.20;99.90;;;;;;5139025;27;19930;-81
2023/01/26 08:29:05;;;;;;;;;;;1.20;99.90;;;;;;5122410;27;19931;-81
2023/01/26 08:31:32;;;;;;;;;;;1.20;99.90;;;;;;5122377;27;19943;-82
2023/01/26 08:33:58;;;;;;;;;;;1.20;99.90;;;;;;5124548;27;19924;-83
2023/01/26 08:36:23;;;;;;;;;;;1.20;99.90;;;;;;5116304;28;19930;-82
2023/01/26 08:38:49;;;;;;;;;;;1.20;99.90;;;;;;5111696;27;19949;-81
2023/01/26 08:41:17;;;;;;;;;;;1.20;99.90;;;;;;5117423;28;20136;-82
2023/01/26 08:43:43;;;;;;;;;;;1.20;99.90;;;;;;5120191;28;19923;-83
2023/01/26 08:46:09;;;;;;;;;;;1.20;99.90;;;;;;5120707;27;19928;-82
2023/01/26 08:48:35;;;;;;;;;;;1.20;99.90;;;;;;5106459;27;20050;-82
2023/01/26 08:51:01;;;;;;;;;;;1.30;99.90;;;;;;5124384;27;19924;-82
2023/01/26 08:53:29;;;;;;;;;;;1.20;99.90;;;;;;5123020;27;19924;-82
2023/01/26 08:55:54;;;;;;;;;;;1.20;99.90;;;;;;5121777;27;19978;-81
2023/01/26 08:58:20;;;;;;;;;;;1.20;99.90;;;;;;5122511;27;19923;-82
2023/01/26 09:00:46;;;;;;;;;;;1.20;99.90;;;;;;5100640;27;19938;-81
2023/01/26 09:03:11;;;;;;;;;;;1.40;99.90;;;;;;5088350;28;19924;-81
2023/01/26 09:05:38;;;;;;;;;;;1.40;99.90;;;;;;5109363;28;19924;-82
2023/01/26 09:08:04;;;;;;;;;;;1.40;99.90;;;;;;5121919;27;20000;-81
2023/01/26 09:10:30;;;;;;;;;;;1.50;99.90;;;;;;5122573;27;19930;-81
2023/01/26 09:12:56;;;;;;;;;;;1.50;99.90;;;;;;5120432;27;19971;-81
2023/01/26 09:15:22;;;;;;;;;;;1.60;99.90;;;;;;5116860;28;19923;-81
2023/01/26 09:17:47;;;;;;;;;;;1.60;99.90;;;;;;5085856;28;19924;-81
2023/01/26 09:20:13;;;;;;;;;;;1.60;99.90;;;;;;5126997;27;19942;-81
2023/01/26 09:22:39;;;;;;;;;;;1.70;99.90;;;;;;5122445;27;20434;-81
2023/01/26 09:25:04;;;;;;;;;;;1.80;99.90;;;;;;5106694;27;19960;-81
2023/01/26 09:27:30;;;;;;;;;;;1.90;99.90;;;;;;5099728;28;19946;-82
2023/01/26 09:29:55;;;;;;;;;;;2.00;99.90;;;;;;5122054;27;19931;-80
2023/01/26 09:32:21;;;;;;;;;;;2.10;99.90;;;;;;5121863;27;19937;-80
2023/01/26 09:34:47;;;;;;;;;;;2.30;99.90;;;;;;5102978;28;19924;-81
2023/01/26 09:37:13;;;;;;;;;;;2.40;99.90;;;;;;5107136;27;19923;-81
2023/01/26 09:39:39;;;;;;;;;;;2.40;99.90;;;;;;5124438;27;19963;-81
2023/01/26 09:42:23;;;;;;;;;;;2.60;99.90;;;;;;5122529;27;19923;-81
2023/01/26 09:44:57;;;;;;;;;;;2.80;99.90;;;;;;5125040;27;20018;-81
2023/01/26 09:47:29;;;;;;;;;;;3.10;99.90;;;;;;5123519;27;19927;-81
2023/01/26 09:50:02;;;;;;;;;;;3.40;99.90;;;;;;5122223;27;19966;-81
2023/01/26 09:52:36;;;;;;;;;;;3.80;99.90;;;;;;5122596;27;20009;-81
2023/01/26 09:55:03;;;;;;;;;;;4.40;99.90;;;;;;5122948;27;19984;-81
2023/01/26 09:57:29;;;;;;;;;;;4.90;99.90;;;;;;5109870;27;19924;-81
2023/01/26 09:59:58;;;;;;;;;;;5.30;99.90;;;;;;5129248;28;19939;-81
2023/01/26 10:02:26;;;;;;;;;;;5.50;99.90;;;;;;5129801;27;19934;-81
2023/01/26 10:04:55;;;;;;;;;;;5.70;99.90;;;;;;5130416;27;19923;-81
2023/01/26 10:07:21;;;;;;;;;;;5.90;99.90;;;;;;5129613;27;19927;-81
2023/01/26 10:09:48;;;;;;;;;;;6.00;99.90;;;;;;5110436;28;19923;-81
2023/01/26 10:12:20;;;;;;;;;;;5.90;99.90;;;;;;5130864;27;19919;-81
2023/01/26 10:15:09;;;;;;;;;;;5.80;99.90;;;;;;5130432;27;19966;-81
2023/01/26 10:17:42;;;;;;;;;;;5.70;99.90;;;;;;5122042;27;20060;-80
2023/01/26 10:20:26;;;;;;;;;;;5.70;99.90;;;;;;5125737;28;19923;-80
2023/01/26 10:22:53;;;;;;;;;;;5.60;99.90;;;;;;5108246;28;19970;-81
2023/01/26 10:25:32;;;;;;;;;;;5.50;99.90;;;;;;5102842;28;19924;-81
2023/01/26 10:27:57;;;;;;;;;;;5.30;99.90;;;;;;5114908;27;19923;-81
2023/01/26 10:30:23;;;;;;;;;;;5.20;99.90;;;;;;5118616;27;20003;-81
2023/01/26 10:32:50;;;;;;;;;;;5.10;99.90;;;;;;5120150;28;20420;-81
2023/01/26 10:35:18;;;;;;;;;;;5.10;99.90;;;;;;5117719;28;19949;-81
2023/01/26 10:37:43;;;;;;;;;;;5.20;99.90;;;;;;5120794;28;19923;-82
2023/01/26 10:40:09;;;;;;;;;;;5.20;99.90;;;;;;5104446;28;20061;-81
2023/01/26 10:42:36;;;;;;;;;;;5.20;99.90;;;;;;5122424;28;19927;-82
2023/01/26 10:45:25;;;;;;;;;;;5.30;99.90;;;;;;5120936;28;19927;-81
2023/01/26 10:48:09;;;;;;;;;;;5.40;99.90;;;;;;5114064;28;19950;-81
2023/01/26 10:50:35;;;;;;;;;;;5.40;99.90;;;;;;5124560;28;19923;-81
2023/01/26 10:53:01;;;;;;;;;;;5.50;99.90;;;;;;5105362;28;19944;-81
2023/01/26 10:55:27;;;;;;;;;;;5.60;99.90;;;;;;5121944;28;19923;-81
2023/01/26 10:57:53;;;;;;;;;;;5.70;99.90;;;;;;5111920;28;19958;-81
2023/01/26 11:00:27;;;;;;;;;;;5.80;99.90;;;;;;5131326;28;19924;-81
2023/01/26 11:02:55;;;;;;;;;;;5.70;99.90;;;;;;5118004;28;19923;-81
2023/01/26 11:05:22;;;;;;;;;;;5.80;99.90;;;;;;5140489;28;19988;-81
2023/01/26 11:07:49;;;;;;;;;;;5.90;99.90;;;;;;5121306;28;19974;-80
2023/01/26 11:10:18;;;;;;;;;;;6.00;99.90;;;;;;5111923;27;20436;-81
2023/01/26 11:12:43;;;;;;;;;;;6.10;99.90;;;;;;5125096;27;19923;-80
2023/01/26 11:15:16;;;;;;;;;;;6.30;99.90;;;;;;5124550;27;20026;-81
2023/01/26 11:18:08;;;;;;;;;;;6.50;99.90;;;;;;5125078;27;19924;-81
2023/01/26 11:20:34;;;;;;;;;;;6.50;99.90;;;;;;5083500;27;19934;-81
2023/01/26 11:23:02;;;;;;;;;;;6.60;99.90;;;;;;5131212;27;19950;-81
2023/01/26 11:25:39;;;;;;;;;;;6.60;99.90;;;;;;5113757;27;19928;-81
2023/01/26 11:28:31;;;;;;;;;;;6.70;99.90;;;;;;5101200;27;20397;-81
2023/01/26 11:31:00;;;;;;;;;;;6.80;99.90;;;;;;5119344;27;19979;-81
2023/01/26 11:33:28;;;;;;;;;;;6.80;99.90;;;;;;5124443;27;19953;-82
2023/01/26 11:36:15;;;;;;;;;;;6.80;99.90;;;;;;5117552;27;19932;-84
2023/01/26 11:38:41;;;;;;;;;;;6.80;99.90;;;;;;5099837;27;19927;-81
2023/01/26 11:41:26;;;;;;;;;;;6.70;99.90;;;;;;5122552;27;19923;-81
2023/01/26 11:43:57;;;;;;;;;;;6.70;99.90;;;;;;5107905;27;20511;-80
2023/01/26 11:46:32;;;;;;;;;;;6.80;99.90;;;;;;5125337;27;19931;-82
2023/01/26 11:49:17;;;;;;;;;;;6.90;99.90;;;;;;5107294;27;19928;-82
2023/01/26 11:51:54;;;;;;;;;;;7.00;99.90;;;;;;5125423;27;19939;-82
2023/01/26 11:54:20;;;;;;;;;;;7.10;99.90;;;;;;5124506;27;20365;-82
2023/01/26 11:56:58;;;;;;;;;;;7.10;99.90;;;;;;5124863;27;19962;-82
2023/01/26 11:59:27;;;;;;;;;;;7.20;99.90;;;;;;5108081;27;19995;-82
2023/01/26 12:01:57;;;;;;;;;;;7.20;99.90;;;;;;5123756;27;19923;-82
2023/01/26 12:04:23;;;;;;;;;;;7.20;99.90;;;;;;5125374;27;19944;-82
2023/01/26 12:06:54;;;;;;;;;;;7.30;99.90;;;;;;5123778;27;19959;-82
2023/01/26 12:09:22;;;;;;;;;;;7.30;99.90;;;;;;5124785;27;19923;-82
2023/01/26 12:11:56;;;;;;;;;;;7.30;99.90;;;;;;5104057;28;19934;-82
2023/01/26 12:14:24;;;;;;;;;;;7.30;99.90;;;;;;5100598;27;19930;-82
2023/01/26 12:16:59;;;;;;;;;;;7.40;99.90;;;;;;5111171;27;19931;-81
2023/01/26 12:19:25;;;;;;;;;;;7.40;99.90;;;;;;5123693;27;19923;-82
2023/01/26 12:21:53;;;;;;;;;;;7.40;99.90;;;;;;5107607;27;20361;-82
2023/01/26 12:24:24;;;;;;;;;;;7.50;99.90;;;;;;5123404;27;19924;-82
2023/01/26 12:26:52;;;;;;;;;;;7.60;99.90;;;;;;5124209;27;19946;-82
2023/01/26 12:29:27;;;;;;;;;;;7.60;99.90;;;;;;5104340;28;19924;-82
2023/01/26 12:31:53;;;;;;;;;;;7.70;99.90;;;;;;5103031;28;19969;-81
2023/01/26 12:34:23;;;;;;;;;;;7.80;99.90;;;;;;5097885;27;19927;-82
2023/01/26 12:37:08;;;;;;;;;;;7.80;99.90;;;;;;5106215;27;20010;-82
2023/01/26 12:39:40;;;;;;;;;;;7.80;99.90;;;;;;5103611;28;19994;-82
2023/01/26 12:42:06;;;;;;;;;;;7.90;99.90;;;;;;5106902;27;19927;-81
2023/01/26 12:44:36;;;;;;;;;;;8.00;99.90;;;;;;5123464;27;19934;-81
2023/01/26 12:47:12;;;;;;;;;;;8.10;99.90;;;;;;5104216;28;19924;-81
2023/01/26 12:50:04;;;;;;;;;;;8.20;99.90;;;;;;5112315;27;19923;-81
2023/01/26 12:52:33;;;;;;;;;;;8.20;99.90;;;;;;5097277;27;20381;-81
2023/01/26 12:55:08;;;;;;;;;;;8.10;99.90;;;;;;5108505;27;19961;-81
2023/01/26 12:57:41;;;;;;;;;;;8.10;99.90;;;;;;5122786;27;19943;-81
2023/01/26 13:00:28;;;;;;;;;;;8.00;99.90;;;;;;5124235;27;20010;-81
2023/01/26 13:03:04;;;;;;;;;;;8.00;99.90;;;;;;5141163;27;19927;-81
2023/01/26 13:05:32;;;;;;;;;;;8.00;99.90;;;;;;5123561;27;19927;-82
2023/01/26 13:08:17;;;;;;;;;;;8.00;99.90;;;;;;5124011;27;20390;-81
2023/01/26 13:10:47;;;;;;;;;;;7.90;99.90;;;;;;5122189;27;20416;-81
2023/01/26 13:13:15;;;;;;;;;;;8.00;99.90;;;;;;5123515;27;19927;-82
2023/01/26 13:15:41;;;;;;;;;;;7.90;99.90;;;;;;5122619;27;19923;-81
2023/01/26 13:18:11;;;;;;;;;;;7.90;99.90;;;;;;5123172;27;19928;-81
2023/01/26 13:20:40;;;;;;;;;;;8.00;99.90;;;;;;5096915;28;19930;-81
2023/01/26 13:23:25;;;;;;;;;;;8.10;99.90;;;;;;5120368;27;20002;-81
2023/01/26 13:26:09;;;;;;;;;;;8.10;99.90;;;;;;5107816;27;19934;-81
2023/01/26 13:28:35;;;;;;;;;;;8.10;99.90;;;;;;5108095;27;19942;-81
2023/01/26 13:31:05;;;;;;;;;;;8.00;99.90;;;;;;5106311;27;19927;-81
2023/01/26 13:33:31;;;;;;;;;;;8.10;99.90;;;;;;5102693;28;19923;-81
2023/01/26 13:35:57;;;;;;;;;;;8.00;99.90;;;;;;5110874;27;19935;-81
2023/01/26 13:38:30;;;;;;;;;;;8.00;99.90;;;;;;5135449;27;19930;-81
2023/01/26 13:40:56;;;;;;;;;;;8.00;99.90;;;;;;5122977;27;19934;-82
2023/01/26 13:43:24;;;;;;;;;;;8.00;99.90;;;;;;5123038;27;19963;-82
2023/01/26 13:45:50;;;;;;;;;;;7.90;99.90;;;;;;5122208;27;19971;-82
2023/01/26 13:48:19;;;;;;;;;;;7.90;99.90;;;;;;5106086;27;19934;-81
2023/01/26 13:50:47;;;;;;;;;;;7.90;99.90;;;;;;5103898;27;20305;-81
2023/01/26 13:53:31;;;;;;;;;;;7.90;99.90;;;;;;5121767;27;20437;-83
2023/01/26 13:55:58;;;;;;;;;;;7.80;99.90;;;;;;5093871;27;19924;-81
2023/01/26 13:58:24;;;;;;;;;;;7.80;99.90;;;;;;5117742;27;19923;-81
2023/01/26 14:00:56;;;;;;;;;;;7.80;99.90;;;;;;5109055;27;19939;-81
2023/01/26 14:03:22;;;;;;;;;;;7.80;99.90;;;;;;5083632;27;19923;-81
2023/01/26 14:05:56;;;;;;;;;;;7.70;99.90;;;;;;5104299;27;19987;-81
2023/01/26 14:08:22;;;;;;;;;;;7.70;99.90;;;;;;5108543;27;19944;-81
2023/01/26 14:10:48;;;;;;;;;;;7.70;99.90;;;;;;5095230;27;19971;-81
2023/01/26 14:13:19;;;;;;;;;;;7.60;99.90;;;;;;5112529;28;20360;-81
2023/01/26 14:15:54;;;;;;;;;;;7.60;99.90;;;;;;5109041;27;19928;-81
2023/01/26 14:18:21;;;;;;;;;;;7.60;99.90;;;;;;5115883;27;19942;-82
2023/01/26 14:20:46;;;;;;;;;;;7.60;99.90;;;;;;5117861;27;19924;-81
2023/01/26 14:23:13;;;;;;;;;;;7.50;99.90;;;;;;5133505;27;19971;-82
2023/01/26 14:25:40;;;;;;;;;;;7.50;99.90;;;;;;5104281;27;19924;-81
2023/01/26 14:28:11;;;;;;;;;;;7.40;99.90;;;;;;5083715;28;19932;-81
2023/01/26 14:30:37;;;;;;;;;;;7.40;99.90;;;;;;5105978;27;19923;-81
2023/01/26 14:33:05;;;;;;;;;;;7.30;99.90;;;;;;5089783;27;19955;-81
2023/01/26 14:35:30;;;;;;;;;;;7.30;99.90;;;;;;5114958;27;20318;-81
2023/01/26 14:38:11;;;;;;;;;;;7.30;99.90;;;;;;5103151;27;19928;-81
2023/01/26 14:40:44;;;;;;;;;;;7.30;99.90;;;;;;5101202;27;20030;-81
2023/01/26 14:43:11;;;;;;;;;;;7.30;99.90;;;;;;5102843;27;19927;-81
2023/01/26 14:45:38;;;;;;;;;;;7.20;99.90;;;;;;5111714;27;19924;-81
2023/01/26 14:48:05;;;;;;;;;;;7.20;99.90;;;;;;5113144;28;20431;-80
2023/01/26 14:50:31;;;;;;;;;;;7.20;99.90;;;;;;5119455;27;19932;-80
2023/01/26 14:52:57;;;;;;;;;;;7.20;99.90;;;;;;5101879;27;19923;-81
2023/01/26 14:55:27;;;;;;;;;;;7.20;99.90;;;;;;5126598;27;19930;-81
2023/01/26 14:57:54;;;;;;;;;;;7.20;99.90;;;;;;5107329;27;19924;-80
2023/01/26 15:00:35;;;;;;;;;;;7.10;99.90;;;;;;5095634;27;19949;-81
2023/01/26 15:03:06;;;;;;;;;;;7.10;99.90;;;;;;5125235;27;19930;-81
2023/01/26 15:05:33;;;;;;;;;;;7.10;99.90;;;;;;5124243;27;19931;-81
2023/01/26 15:08:01;;;;;;;;;;;7.10;99.90;;;;;;5125511;27;19931;-81
2023/01/26 15:10:32;;;;;;;;;;;7.10;99.90;;;;;;5140164;27;19992;-81
2023/01/26 15:12:58;;;;;;;;;;;7.10;99.90;;;;;;5124792;27;19924;-80
2023/01/26 15:15:28;;;;;;;;;;;7.10;99.90;;;;;;5124936;27;19935;-81
2023/01/26 15:18:20;;;;;;;;;;;7.00;99.90;;;;;;5101656;27;19930;-81